sensor_id;sensor_type;location;lat;lon;timestamp;pressure;altitude;pressure_sealevel;temperature;humidity
60089;BME280;45961;53.574;55.878;2023-02-28T00:00:32;99562.41;;;1.15;98.27
60089;BME280;45961;53.574;55.878;2023-02-28T00:01:34;99547.75;;;1.10;98.16
60089;BME280;45961;53.574;55.878;2023-02-28T00:02:36;99538.47;;;1.12;98.35
60089;BME280;45961;53.574;55.878;2023-02-28T00:07:13;99502.03;;;0.90;98.17
60089;BME280;45961;53.574;55.878;2023-02-28T00:08:14;99539.41;;;1.14;98.15
60089;BME280;45961;53.574;55.878;2023-02-28T00:09:15;99543.53;;;1.10;98.13
60089;BME280;45961;53.574;55.878;2023-02-28T00:10:24;99547.09;;;1.15;98.10
60089;BME280;45961;53.574;55.878;2023-02-28T00:11:27;99539.63;;;1.20;98.07
60089;BME280;45961;53.574;55.878;2023-02-28T00:12:28;99539.63;;;1.20;98.08
60089;BME280;45961;53.574;55.878;2023-02-28T00:13:30;99540.16;;;1.11;97.92
60089;BME280;45961;53.574;55.878;2023-02-28T00:14:31;99540.41;;;1.17;97.94
60089;BME280;45961;53.574;55.878;2023-02-28T00:15:32;99544.72;;;1.20;97.96
60089;BME280;45961;53.574;55.878;2023-02-28T00:16:37;99522.03;;;1.04;97.98
60089;BME280;45961;53.574;55.878;2023-02-28T00:17:38;99533.66;;;1.19;97.96
60089;BME280;45961;53.574;55.878;2023-02-28T00:18:39;99529.34;;;1.17;98.07
60089;BME280;45961;53.574;55.878;2023-02-28T00:19:40;99537.88;;;1.19;97.87
60089;BME280;45961;53.574;55.878;2023-02-28T00:20:41;99536.28;;;1.21;97.92
60089;BME280;45961;53.574;55.878;2023-02-28T00:21:42;99535.94;;;1.12;97.88
60089;BME280;45961;53.574;55.878;2023-02-28T00:22:45;99525.19;;;1.20;97.84
60089;BME280;45961;53.574;55.878;2023-02-28T00:23:46;99536.31;;;1.22;97.69
60089;BME280;45961;53.574;55.878;2023-02-28T00:24:47;99533.78;;;1.22;97.54
60089;BME280;45961;53.574;55.878;2023-02-28T00:29:15;99513.25;;;0.95;97.30
60089;BME280;45961;53.574;55.878;2023-02-28T00:30:22;99537.19;;;1.23;97.26
60089;BME280;45961;53.574;55.878;2023-02-28T00:31:23;99540.13;;;1.10;96.98
60089;BME280;45961;53.574;55.878;2023-02-28T00:32:24;99545.13;;;1.08;97.19
60089;BME280;45961;53.574;55.878;2023-02-28T00:33:29;99544.06;;;1.02;97.35
60089;BME280;45961;53.574;55.878;2023-02-28T00:34:30;99549.44;;;1.09;97.34
60089;BME280;45961;53.574;55.878;2023-02-28T00:35:31;99541.72;;;1.08;97.27
60089;BME280;45961;53.574;55.878;2023-02-28T00:36:34;99546.06;;;1.10;97.15
60089;BME280;45961;53.574;55.878;2023-02-28T00:37:38;99537.88;;;1.19;97.21
60089;BME280;45961;53.574;55.878;2023-02-28T00:38:40;99533.44;;;1.13;97.32
60089;BME280;45961;53.574;55.878;2023-02-28T00:39:41;99533.81;;;1.24;97.24
60089;BME280;45961;53.574;55.878;2023-02-28T00:40:42;99528.78;;;1.26;97.21
60089;BME280;45961;53.574;55.878;2023-02-28T00:41:45;99526.16;;;1.24;97.09
60089;BME280;45961;53.574;55.878;2023-02-28T00:42:50;99532.09;;;1.23;96.99
60089;BME280;45961;53.574;55.878;2023-02-28T00:43:52;99533.09;;;1.28;96.99
60089;BME280;45961;53.574;55.878;2023-02-28T00:44:54;99530.34;;;1.22;96.83
60089;BME280;45961;53.574;55.878;2023-02-28T00:45:56;99529.09;;;1.11;96.92
60089;BME280;45961;53.574;55.878;2023-02-28T00:46:59;99536.31;;;1.22;96.71
60089;BME280;45961;53.574;55.878;2023-02-28T00:48:01;99537.41;;;1.29;96.82
60089;BME280;45961;53.574;55.878;2023-02-28T00:49:02;99541.47;;;1.24;96.71
60089;BME280;45961;53.574;55.878;2023-02-28T00:50:04;99542.13;;;1.18;96.54
60089;BME280;45961;53.574;55.878;2023-02-28T00:51:05;99526.09;;;1.21;96.59
60089;BME280;45961;53.574;55.878;2023-02-28T00:52:06;99538.97;;;1.26;96.44
60089;BME280;45961;53.574;55.878;2023-02-28T00:53:07;99537.22;;;1.24;96.40
60089;BME280;45961;53.574;55.878;2023-02-28T00:54:08;99543.97;;;1.22;96.39
60089;BME280;45961;53.574;55.878;2023-02-28T00:55:09;99539.13;;;1.30;96.33
60089;BME280;45961;53.574;55.878;2023-02-28T00:56:10;99538.44;;;1.34;96.28
60089;BME280;45961;53.574;55.878;2023-02-28T00:57:11;99536.59;;;1.30;96.02
60089;BME280;45961;53.574;55.878;2023-02-28T00:58:12;99524.56;;;1.26;95.99
60089;BME280;45961;53.574;55.878;2023-02-28T00:59:15;99533.47;;;1.39;95.91
60089;BME280;45961;53.574;55.878;2023-02-28T01:00:16;99524.84;;;1.35;95.98
60089;BME280;45961;53.574;55.878;2023-02-28T01:01:21;99517.81;;;1.28;95.88
60089;BME280;45961;53.574;55.878;2023-02-28T01:02:22;99520.44;;;1.30;95.69
60089;BME280;45961;53.574;55.878;2023-02-28T01:03:23;99529.75;;;1.29;95.64
60089;BME280;45961;53.574;55.878;2023-02-28T01:04:24;99520.97;;;1.21;95.52
60089;BME280;45961;53.574;55.878;2023-02-28T01:05:25;99533.09;;;1.28;95.61
60089;BME280;45961;53.574;55.878;2023-02-28T01:06:26;99525.44;;;1.28;95.44
60089;BME280;45961;53.574;55.878;2023-02-28T01:07:27;99524.56;;;1.26;95.49
60089;BME280;45961;53.574;55.878;2023-02-28T01:08:28;99522.63;;;1.20;95.47
60089;BME280;45961;53.574;55.878;2023-02-28T01:09:30;99520.97;;;1.21;95.54
60089;BME280;45961;53.574;55.878;2023-02-28T01:10:32;99515.78;;;1.18;95.50
60089;BME280;45961;53.574;55.878;2023-02-28T01:11:34;99520.16;;;1.22;95.65
60089;BME280;45961;53.574;55.878;2023-02-28T01:12:39;99522.00;;;1.26;95.56
60089;BME280;45961;53.574;55.878;2023-02-28T01:13:41;99520.31;;;1.27;95.51
60089;BME280;45961;53.574;55.878;2023-02-28T01:14:46;99530.50;;;1.27;95.56
60089;BME280;45961;53.574;55.878;2023-02-28T01:15:52;99525.56;;;1.31;95.41
60089;BME280;45961;53.574;55.878;2023-02-28T01:16:54;99504.16;;;1.26;95.32
60089;BME280;45961;53.574;55.878;2023-02-28T01:17:58;99520.31;;;1.27;95.39
60089;BME280;45961;53.574;55.878;2023-02-28T01:19:01;99516.13;;;1.29;95.35
60089;BME280;45961;53.574;55.878;2023-02-28T01:20:05;99523.16;;;1.36;95.26
60089;BME280;45961;53.574;55.878;2023-02-28T01:21:08;99524.97;;;1.38;95.28
60089;BME280;45961;53.574;55.878;2023-02-28T01:22:10;99521.47;;;1.36;95.29
60089;BME280;45961;53.574;55.878;2023-02-28T01:23:11;99520.78;;;1.40;95.23
60089;BME280;45961;53.574;55.878;2023-02-28T01:24:13;99524.09;;;1.38;95.16
60089;BME280;45961;53.574;55.878;2023-02-28T01:25:15;99518.66;;;1.29;95.03
60089;BME280;45961;53.574;55.878;2023-02-28T01:26:18;99519.44;;;1.26;95.28
60089;BME280;45961;53.574;55.878;2023-02-28T01:27:20;99520.53;;;1.33;95.20
60089;BME280;45961;53.574;55.878;2023-02-28T01:28:21;99517.16;;;1.34;95.04
60089;BME280;45961;53.574;55.878;2023-02-28T01:29:22;99511.91;;;1.29;95.02
60089;BME280;45961;53.574;55.878;2023-02-28T01:30:23;99509.56;;;1.35;95.05
60089;BME280;45961;53.574;55.878;2023-02-28T01:31:24;99511.41;;;1.39;95.08
60089;BME280;45961;53.574;55.878;2023-02-28T01:32:25;99503.91;;;1.44;95.07
60089;BME280;45961;53.574;55.878;2023-02-28T01:33:26;99507.13;;;1.38;95.02
60089;BME280;45961;53.574;55.878;2023-02-28T01:34:27;99506.00;;;1.30;94.80
60089;BME280;45961;53.574;55.878;2023-02-28T01:35:28;99510.50;;;1.37;94.77
60089;BME280;45961;53.574;55.878;2023-02-28T01:36:32;99505.41;;;1.37;94.81
60089;BME280;45961;53.574;55.878;2023-02-28T01:37:33;99495.13;;;1.36;94.97
60089;BME280;45961;53.574;55.878;2023-02-28T01:38:34;99500.34;;;1.39;94.96
60089;BME280;45961;53.574;55.878;2023-02-28T01:39:35;99499.50;;;1.40;94.90
60089;BME280;45961;53.574;55.878;2023-02-28T01:40:38;99507.00;;;1.35;94.87
60089;BME280;45961;53.574;55.878;2023-02-28T01:41:39;99508.44;;;1.27;94.77
60089;BME280;45961;53.574;55.878;2023-02-28T01:42:42;99499.88;;;1.25;94.88
60089;BME280;45961;53.574;55.878;2023-02-28T01:44:59;99499.06;;;1.26;94.90
60089;BME280;45961;53.574;55.878;2023-02-28T01:46:03;99504.09;;;1.24;94.91
60089;BME280;45961;53.574;55.878;2023-02-28T01:47:08;99512.63;;;1.25;95.07
60089;BME280;45961;53.574;55.878;2023-02-28T01:48:09;99505.69;;;1.21;94.94
60089;BME280;45961;53.574;55.878;2023-02-28T01:49:15;99506.63;;;1.24;95.09
60089;BME280;45961;53.574;55.878;2023-02-28T01:50:23;99504.41;;;1.34;95.04
60089;BME280;45961;53.574;55.878;2023-02-28T01:51:39;99502.19;;;1.19;94.88
60089;BME280;45961;53.574;55.878;2023-02-28T01:52:41;99509.13;;;1.23;95.15
60089;BME280;45961;53.574;55.878;2023-02-28T01:53:56;99495.50;;;1.21;95.02
60089;BME280;45961;53.574;55.878;2023-02-28T01:55:01;99510.88;;;1.24;94.93
60089;BME280;45961;53.574;55.878;2023-02-28T01:56:06;99506.72;;;1.26;94.85
60089;BME280;45961;53.574;55.878;2023-02-28T01:57:12;99527.81;;;1.22;94.87
60089;BME280;45961;53.574;55.878;2023-02-28T01:58:16;99515.31;;;1.30;94.78
60089;BME280;45961;53.574;55.878;2023-02-28T01:59:31;99495.25;;;1.15;94.85
60089;BME280;45961;53.574;55.878;2023-02-28T02:00:35;99506.72;;;1.26;94.81
60089;BME280;45961;53.574;55.878;2023-02-28T02:01:36;99507.47;;;1.23;94.63
60089;BME280;45961;53.574;55.878;2023-02-28T02:02:37;99509.38;;;1.29;94.54
60089;BME280;45961;53.574;55.878;2023-02-28T02:03:38;99498.91;;;1.21;94.58
60089;BME280;45961;53.574;55.878;2023-02-28T02:04:51;99500.75;;;1.26;94.53
60089;BME280;45961;53.574;55.878;2023-02-28T02:05:54;99503.38;;;1.29;94.31
60089;BME280;45961;53.574;55.878;2023-02-28T02:06:56;99505.13;;;1.30;94.35
60089;BME280;45961;53.574;55.878;2023-02-28T02:08:03;99502.72;;;1.34;94.10
60089;BME280;45961;53.574;55.878;2023-02-28T02:09:06;99503.34;;;1.27;93.94
60089;BME280;45961;53.574;55.878;2023-02-28T02:10:23;99493.72;;;1.20;94.11
60089;BME280;45961;53.574;55.878;2023-02-28T02:11:25;99498.09;;;1.22;93.72
60089;BME280;45961;53.574;55.878;2023-02-28T02:12:58;99502.44;;;1.25;93.86
60089;BME280;45961;53.574;55.878;2023-02-28T02:14:39;99502.47;;;1.27;93.71
60089;BME280;45961;53.574;55.878;2023-02-28T02:17:22;99500.81;;;1.29;93.42
60089;BME280;45961;53.574;55.878;2023-02-28T02:18:43;99500.66;;;1.24;93.35
60089;BME280;45961;53.574;55.878;2023-02-28T02:20:11;99499.25;;;1.32;93.14
60089;BME280;45961;53.574;55.878;2023-02-28T02:34:28;99504.28;;;1.29;92.11
60089;BME280;45961;53.574;55.878;2023-02-28T02:35:55;99510.06;;;1.25;92.06
60089;BME280;45961;53.574;55.878;2023-02-28T02:37:21;99509.13;;;1.23;91.89
60089;BME280;45961;53.574;55.878;2023-02-28T02:38:35;99510.13;;;1.27;91.71
60089;BME280;45961;53.574;55.878;2023-02-28T02:42:28;99501.66;;;1.28;91.03
60089;BME280;45961;53.574;55.878;2023-02-28T02:43:41;99494.72;;;1.23;90.96
60089;BME280;45961;53.574;55.878;2023-02-28T02:45:01;99495.78;;;1.30;90.86
60089;BME280;45961;53.574;55.878;2023-02-28T02:46:18;99499.22;;;1.31;90.78
60089;BME280;45961;53.574;55.878;2023-02-28T02:47:21;99504.28;;;1.29;90.71
60089;BME280;45961;53.574;55.878;2023-02-28T02:48:30;99495.69;;;1.27;90.79
60089;BME280;45961;53.574;55.878;2023-02-28T02:49:36;99492.44;;;1.31;90.69
60089;BME280;45961;53.574;55.878;2023-02-28T02:50:45;99478.66;;;1.26;90.57
60089;BME280;45961;53.574;55.878;2023-02-28T02:51:48;99493.50;;;1.38;90.30
60089;BME280;45961;53.574;55.878;2023-02-28T02:52:53;99498.81;;;1.44;90.24
60089;BME280;45961;53.574;55.878;2023-02-28T02:54:02;99491.81;;;1.38;90.08
60089;BME280;45961;53.574;55.878;2023-02-28T02:55:08;99490.09;;;1.37;89.93
60089;BME280;45961;53.574;55.878;2023-02-28T02:56:13;99485.03;;;1.39;89.95
60089;BME280;45961;53.574;55.878;2023-02-28T02:57:22;99484.28;;;1.41;89.98
60089;BME280;45961;53.574;55.878;2023-02-28T02:58:32;99491.56;;;1.31;89.79
60089;BME280;45961;53.574;55.878;2023-02-28T02:59:36;99493.56;;;1.39;89.69
60089;BME280;45961;53.574;55.878;2023-02-28T03:00:43;99481.59;;;1.37;89.89
60089;BME280;45961;53.574;55.878;2023-02-28T03:01:52;99491.81;;;1.38;89.82
60089;BME280;45961;53.574;55.878;2023-02-28T03:02:54;99482.97;;;1.29;89.66
60089;BME280;45961;53.574;55.878;2023-02-28T03:04:12;99489.16;;;1.35;89.64
60089;BME280;45961;53.574;55.878;2023-02-28T03:05:19;99495.28;;;1.40;89.68
60089;BME280;45961;53.574;55.878;2023-02-28T03:06:20;99496.09;;;1.39;89.65
60089;BME280;45961;53.574;55.878;2023-02-28T03:07:22;99503.81;;;1.41;89.37
60089;BME280;45961;53.574;55.878;2023-02-28T03:08:23;99501.31;;;1.42;89.44
60089;BME280;45961;53.574;55.878;2023-02-28T03:09:25;99490.19;;;1.40;89.24
60089;BME280;45961;53.574;55.878;2023-02-28T03:10:47;99496.97;;;1.40;88.96
60089;BME280;45961;53.574;55.878;2023-02-28T03:11:54;99487.59;;;1.39;88.73
60089;BME280;45961;53.574;55.878;2023-02-28T03:18:18;99492.00;;;1.44;87.92
60089;BME280;45961;53.574;55.878;2023-02-28T03:19:33;99496.09;;;1.39;87.89
60089;BME280;45961;53.574;55.878;2023-02-28T03:22:16;99497.38;;;1.52;87.98
60089;BME280;45961;53.574;55.878;2023-02-28T03:23:23;99501.75;;;1.56;87.66
60089;BME280;45961;53.574;55.878;2023-02-28T03:26:55;99498.16;;;1.50;87.29
60089;BME280;45961;53.574;55.878;2023-02-28T03:29:24;99502.31;;;1.47;87.00
60089;BME280;45961;53.574;55.878;2023-02-28T03:30:38;99501.47;;;1.47;86.67
60089;BME280;45961;53.574;55.878;2023-02-28T03:31:54;99508.22;;;1.45;86.46
60089;BME280;45961;53.574;55.878;2023-02-28T03:34:09;99514.78;;;1.38;86.53
60089;BME280;45961;53.574;55.878;2023-02-28T03:35:19;99489.06;;;1.32;86.35
60089;BME280;45961;53.574;55.878;2023-02-28T03:36:29;99500.91;;;1.30;86.71
60089;BME280;45961;53.574;55.878;2023-02-28T03:37:31;99510.81;;;1.22;86.28
60089;BME280;45961;53.574;55.878;2023-02-28T03:39:07;99506.25;;;1.38;86.29
60089;BME280;45961;53.574;55.878;2023-02-28T03:40:15;99510.41;;;1.36;86.00
60089;BME280;45961;53.574;55.878;2023-02-28T03:41:24;99510.22;;;1.30;85.87
60089;BME280;45961;53.574;55.878;2023-02-28T03:42:29;99510.34;;;1.33;85.85
60089;BME280;45961;53.574;55.878;2023-02-28T03:43:36;99516.50;;;1.39;85.91
60089;BME280;45961;53.574;55.878;2023-02-28T03:44:57;99524.97;;;1.38;85.98
60089;BME280;45961;53.574;55.878;2023-02-28T03:46:02;99523.97;;;1.33;85.68
60089;BME280;45961;53.574;55.878;2023-02-28T03:48:27;99510.78;;;1.21;84.36
60089;BME280;45961;53.574;55.878;2023-02-28T03:49:38;99501.88;;;1.10;83.92
60089;BME280;45961;53.574;55.878;2023-02-28T03:50:49;99523.72;;;1.27;84.04
60089;BME280;45961;53.574;55.878;2023-02-28T03:52:02;99539.97;;;1.29;83.68
60089;BME280;45961;53.574;55.878;2023-02-28T03:53:14;99528.72;;;1.24;83.88
60089;BME280;45961;53.574;55.878;2023-02-28T03:54:21;99533.66;;;1.19;84.09
60089;BME280;45961;53.574;55.878;2023-02-28T03:55:23;99537.06;;;1.20;83.99
60089;BME280;45961;53.574;55.878;2023-02-28T03:56:33;99522.72;;;1.22;84.20
60089;BME280;45961;53.574;55.878;2023-02-28T03:59:00;99541.47;;;1.24;84.31
60089;BME280;45961;53.574;55.878;2023-02-28T04:00:07;99531.25;;;1.24;84.37
60089;BME280;45961;53.574;55.878;2023-02-28T04:01:23;99538.00;;;1.22;84.49
60089;BME280;45961;53.574;55.878;2023-02-28T04:02:25;99541.38;;;1.21;84.43
60089;BME280;45961;53.574;55.878;2023-02-28T04:03:26;99535.63;;;1.27;84.21
60089;BME280;45961;53.574;55.878;2023-02-28T04:04:28;99527.50;;;1.13;84.03
60089;BME280;45961;53.574;55.878;2023-02-28T04:05:29;99538.75;;;1.19;83.61
60089;BME280;45961;53.574;55.878;2023-02-28T04:06:32;99529.41;;;1.20;83.73
60089;BME280;45961;53.574;55.878;2023-02-28T04:07:33;99530.94;;;1.15;83.69
60089;BME280;45961;53.574;55.878;2023-02-28T04:08:34;99537.69;;;1.13;83.58
60089;BME280;45961;53.574;55.878;2023-02-28T04:09:35;99525.97;;;1.18;83.30
60089;BME280;45961;53.574;55.878;2023-02-28T04:10:36;99536.44;;;1.26;83.05
60089;BME280;45961;53.574;55.878;2023-02-28T04:13:03;99545.69;;;0.99;82.04
60089;BME280;45961;53.574;55.878;2023-02-28T04:14:06;99536.59;;;1.06;81.48
60089;BME280;45961;53.574;55.878;2023-02-28T04:15:08;99536.53;;;1.05;81.13
60089;BME280;45961;53.574;55.878;2023-02-28T04:16:11;99553.50;;;1.04;81.17
60089;BME280;45961;53.574;55.878;2023-02-28T04:17:12;99538.00;;;0.98;80.59
60089;BME280;45961;53.574;55.878;2023-02-28T04:18:13;99538.41;;;0.86;80.32
60089;BME280;45961;53.574;55.878;2023-02-28T04:19:14;99524.53;;;0.78;80.10
60089;BME280;45961;53.574;55.878;2023-02-28T04:20:16;99540.78;;;0.82;80.05
60089;BME280;45961;53.574;55.878;2023-02-28T04:21:17;99535.03;;;0.87;80.35
60089;BME280;45961;53.574;55.878;2023-02-28T04:22:21;99539.16;;;0.84;80.34
60089;BME280;45961;53.574;55.878;2023-02-28T04:23:22;99539.56;;;0.94;80.31
60089;BME280;45961;53.574;55.878;2023-02-28T04:24:26;99543.84;;;0.95;80.24
60089;BME280;45961;53.574;55.878;2023-02-28T04:25:27;99541.09;;;0.89;79.92
60089;BME280;45961;53.574;55.878;2023-02-28T04:26:30;99538.41;;;0.86;80.07
60089;BME280;45961;53.574;55.878;2023-02-28T04:27:31;99542.53;;;0.83;79.82
60089;BME280;45961;53.574;55.878;2023-02-28T04:28:33;99549.25;;;0.81;80.02
60089;BME280;45961;53.574;55.878;2023-02-28T04:29:34;99539.81;;;0.78;79.90
60089;BME280;45961;53.574;55.878;2023-02-28T04:30:35;99539.94;;;0.81;79.82
60089;BME280;45961;53.574;55.878;2023-02-28T04:31:37;99540.50;;;0.74;79.75
60089;BME280;45961;53.574;55.878;2023-02-28T04:32:38;99541.34;;;0.73;79.64
60089;BME280;45961;53.574;55.878;2023-02-28T04:33:39;99552.13;;;0.67;79.28
60089;BME280;45961;53.574;55.878;2023-02-28T04:34:40;99545.47;;;0.71;79.37
60089;BME280;45961;53.574;55.878;2023-02-28T04:35:40;99530.41;;;0.53;78.90
60089;BME280;45961;53.574;55.878;2023-02-28T04:36:41;99548.31;;;0.56;78.56
60089;BME280;45961;53.574;55.878;2023-02-28T04:37:43;99538.91;;;0.54;78.63
60089;BME280;45961;53.574;55.878;2023-02-28T04:38:44;99543.16;;;0.55;78.85
60089;BME280;45961;53.574;55.878;2023-02-28T04:39:46;99542.06;;;0.48;78.61
60089;BME280;45961;53.574;55.878;2023-02-28T04:40:46;99551.16;;;0.41;78.47
60089;BME280;45961;53.574;55.878;2023-02-28T04:41:48;99530.72;;;0.40;78.58
60089;BME280;45961;53.574;55.878;2023-02-28T04:42:49;99540.50;;;0.52;78.29
60089;BME280;45961;53.574;55.878;2023-02-28T04:43:52;99522.47;;;0.45;78.42
60089;BME280;45961;53.574;55.878;2023-02-28T04:44:53;99525.75;;;0.43;78.23
60089;BME280;45961;53.574;55.878;2023-02-28T04:45:56;99531.97;;;0.49;78.56
60089;BME280;45961;53.574;55.878;2023-02-28T04:46:57;99523.50;;;0.51;78.56
60089;BME280;45961;53.574;55.878;2023-02-28T04:47:58;99530.16;;;0.47;78.39
60089;BME280;45961;53.574;55.878;2023-02-28T04:48:59;99540.22;;;0.44;78.31
60089;BME280;45961;53.574;55.878;2023-02-28T04:50:00;99547.97;;;0.47;78.00
60089;BME280;45961;53.574;55.878;2023-02-28T04:51:02;99541.72;;;0.39;77.78
60089;BME280;45961;53.574;55.878;2023-02-28T04:52:05;99545.03;;;0.36;77.36
60089;BME280;45961;53.574;55.878;2023-02-28T04:53:08;99536.56;;;0.37;77.31
60089;BME280;45961;53.574;55.878;2023-02-28T04:54:09;99537.09;;;0.51;77.30
60089;BME280;45961;53.574;55.878;2023-02-28T04:55:10;99536.41;;;0.55;77.42
60089;BME280;45961;53.574;55.878;2023-02-28T04:56:15;99539.75;;;0.54;77.10
60089;BME280;45961;53.574;55.878;2023-02-28T04:57:16;99546.38;;;0.49;76.62
60089;BME280;45961;53.574;55.878;2023-02-28T04:58:17;99556.03;;;0.58;76.27
60089;BME280;45961;53.574;55.878;2023-02-28T04:59:18;99554.56;;;0.64;76.26
60089;BME280;45961;53.574;55.878;2023-02-28T05:00:19;99559.03;;;0.70;75.99
60089;BME280;45961;53.574;55.878;2023-02-28T05:01:33;99555.22;;;0.59;75.73
60089;BME280;45961;53.574;55.878;2023-02-28T05:02:35;99559.44;;;0.58;75.24
60089;BME280;45961;53.574;55.878;2023-02-28T05:03:36;99559.44;;;0.58;74.62
60089;BME280;45961;53.574;55.878;2023-02-28T05:04:37;99545.44;;;0.47;74.08
60089;BME280;45961;53.574;55.878;2023-02-28T05:05:39;99566.19;;;0.35;73.76
60089;BME280;45961;53.574;55.878;2023-02-28T05:06:40;99576.06;;;0.48;73.82
60089;BME280;45961;53.574;55.878;2023-02-28T05:07:41;99578.00;;;0.56;73.67
60089;BME280;45961;53.574;55.878;2023-02-28T05:08:42;99583.78;;;0.52;73.19
60089;BME280;45961;53.574;55.878;2023-02-28T05:09:44;99589.91;;;0.34;72.74
60089;BME280;45961;53.574;55.878;2023-02-28T05:10:45;99587.66;;;0.42;72.54
60089;BME280;45961;53.574;55.878;2023-02-28T05:11:47;99606.00;;;0.33;72.15
60089;BME280;45961;53.574;55.878;2023-02-28T05:12:48;99598.22;;;0.30;72.08
60089;BME280;45961;53.574;55.878;2023-02-28T05:13:50;99599.72;;;0.25;71.96
60089;BME280;45961;53.574;55.878;2023-02-28T05:14:51;99596.75;;;0.14;71.47
60089;BME280;45961;53.574;55.878;2023-02-28T05:15:52;99591.97;;;0.22;71.80
60089;BME280;45961;53.574;55.878;2023-02-28T05:16:53;99592.44;;;0.34;71.85
60089;BME280;45961;53.574;55.878;2023-02-28T05:17:54;99588.22;;;0.35;71.87
60089;BME280;45961;53.574;55.878;2023-02-28T05:18:55;99588.06;;;0.30;72.10
60089;BME280;45961;53.574;55.878;2023-02-28T05:19:56;99588.22;;;0.35;72.08
60089;BME280;45961;53.574;55.878;2023-02-28T05:20:57;99594.75;;;0.28;71.63
60089;BME280;45961;53.574;55.878;2023-02-28T05:22:01;99597.19;;;0.25;72.01
60089;BME280;45961;53.574;55.878;2023-02-28T05:23:03;99589.28;;;0.19;72.29
60089;BME280;45961;53.574;55.878;2023-02-28T05:24:09;99599.16;;;0.11;72.14
60089;BME280;45961;53.574;55.878;2023-02-28T05:25:16;99600.72;;;0.08;71.94
60089;BME280;45961;53.574;55.878;2023-02-28T05:26:19;99598.59;;;0.18;72.34
60089;BME280;45961;53.574;55.878;2023-02-28T05:27:20;99591.72;;;0.16;72.02
60089;BME280;45961;53.574;55.878;2023-02-28T05:28:21;99599.59;;;0.22;71.84
60089;BME280;45961;53.574;55.878;2023-02-28T05:29:22;99590.09;;;0.18;71.52
60089;BME280;45961;53.574;55.878;2023-02-28T05:30:23;99592.41;;;0.33;71.12
60089;BME280;45961;53.574;55.878;2023-02-28T05:31:24;99592.97;;;0.26;71.10
60089;BME280;45961;53.574;55.878;2023-02-28T05:32:26;99587.22;;;0.31;71.29
60089;BME280;45961;53.574;55.878;2023-02-28T05:33:26;99595.81;;;0.33;71.34
60089;BME280;45961;53.574;55.878;2023-02-28T05:34:27;99600.09;;;0.34;71.03
60089;BME280;45961;53.574;55.878;2023-02-28T05:35:28;99599.41;;;0.38;71.16
60089;BME280;45961;53.574;55.878;2023-02-28T05:36:30;99602.38;;;0.28;70.73
60089;BME280;45961;53.574;55.878;2023-02-28T05:37:31;99597.28;;;0.28;71.16
60089;BME280;45961;53.574;55.878;2023-02-28T05:38:35;99591.63;;;0.35;70.93
60089;BME280;45961;53.574;55.878;2023-02-28T05:39:36;99585.16;;;0.21;71.30
60089;BME280;45961;53.574;55.878;2023-02-28T05:40:39;99582.69;;;0.24;71.40
60089;BME280;45961;53.574;55.878;2023-02-28T05:41:42;99591.34;;;0.28;71.41
60089;BME280;45961;53.574;55.878;2023-02-28T05:42:43;99582.41;;;0.37;71.76
60089;BME280;45961;53.574;55.878;2023-02-28T05:43:44;99586.88;;;0.22;72.00
60089;BME280;45961;53.574;55.878;2023-02-28T05:44:45;99588.75;;;0.26;71.76
60089;BME280;45961;53.574;55.878;2023-02-28T05:45:46;99597.19;;;0.25;71.40
60089;BME280;45961;53.574;55.878;2023-02-28T05:46:47;99589.25;;;0.17;71.53
60089;BME280;45961;53.574;55.878;2023-02-28T05:47:48;99604.69;;;0.22;71.26
60089;BME280;45961;53.574;55.878;2023-02-28T05:48:50;99596.72;;;0.35;71.66
60089;BME280;45961;53.574;55.878;2023-02-28T05:49:51;99597.47;;;0.12;71.45
60089;BME280;45961;53.574;55.878;2023-02-28T05:50:53;99603.16;;;0.05;71.59
60089;BME280;45961;53.574;55.878;2023-02-28T05:51:54;99595.75;;;0.11;71.42
60089;BME280;45961;53.574;55.878;2023-02-28T05:52:55;99584.75;;;0.12;71.66
60089;BME280;45961;53.574;55.878;2023-02-28T05:53:59;99598.22;;;0.30;71.64
60089;BME280;45961;53.574;55.878;2023-02-28T05:55:00;99601.94;;;0.38;71.91
60089;BME280;45961;53.574;55.878;2023-02-28T05:56:02;99605.22;;;0.36;71.58
60089;BME280;45961;53.574;55.878;2023-02-28T05:57:03;99603.81;;;0.42;71.27
60089;BME280;45961;53.574;55.878;2023-02-28T05:58:04;99599.09;;;0.31;71.26
60089;BME280;45961;53.574;55.878;2023-02-28T05:59:06;99601.09;;;0.38;70.76
60089;BME280;45961;53.574;55.878;2023-02-28T06:00:07;99595.44;;;0.45;71.07
60089;BME280;45961;53.574;55.878;2023-02-28T06:01:25;99592.72;;;0.40;70.74
60089;BME280;45961;53.574;55.878;2023-02-28T06:02:31;99599.28;;;0.35;70.70
60089;BME280;45961;53.574;55.878;2023-02-28T06:03:32;99581.53;;;0.37;71.37
60089;BME280;45961;53.574;55.878;2023-02-28T06:04:32;99581.16;;;0.48;71.32
60089;BME280;45961;53.574;55.878;2023-02-28T06:05:33;99581.59;;;0.38;71.14
60089;BME280;45961;53.574;55.878;2023-02-28T06:06:35;99581.38;;;0.55;71.06
60089;BME280;45961;53.574;55.878;2023-02-28T06:07:37;99574.94;;;0.42;70.49
60089;BME280;45961;53.574;55.878;2023-02-28T06:08:38;99578.41;;;0.44;71.03
60089;BME280;45961;53.574;55.878;2023-02-28T06:09:39;99578.41;;;0.44;71.23
60089;BME280;45961;53.574;55.878;2023-02-28T06:10:40;99567.66;;;0.51;71.09
60089;BME280;45961;53.574;55.878;2023-02-28T06:11:41;99576.44;;;0.59;70.99
60089;BME280;45961;53.574;55.878;2023-02-28T06:12:42;99565.63;;;0.42;70.63
60089;BME280;45961;53.574;55.878;2023-02-28T06:13:45;99569.44;;;0.54;70.57
60089;BME280;45961;53.574;55.878;2023-02-28T06:14:46;99566.69;;;0.70;70.66
60089;BME280;45961;53.574;55.878;2023-02-28T06:15:47;99559.19;;;0.74;70.72
60089;BME280;45961;53.574;55.878;2023-02-28T06:16:48;99564.47;;;0.79;70.40
60089;BME280;45961;53.574;55.878;2023-02-28T06:17:49;99568.53;;;0.74;70.38
60089;BME280;45961;53.574;55.878;2023-02-28T06:18:50;99577.63;;;0.90;70.29
60089;BME280;45961;53.574;55.878;2023-02-28T06:19:51;99575.59;;;0.81;70.29
60089;BME280;45961;53.574;55.878;2023-02-28T06:20:53;99578.44;;;0.89;70.36